Niagara District Airport
CYSN : now visible

Airfield :











YOU CAN JOIN US ON...

 
LOGIN :

Register | Disclaimer

   EN    FR    IT 

 









Legend :    VFR   Marginal VFR   IFR   Intensive IFR   Very Intensive IFR
Visi :
Ceiling :
>= 8 km
>= 3000ft
5 to 8 km
1000 to 3000 ft
1500m to 5 km
500 to 1000 ft
800 to 1500m
200 to 500 ft
< 800m
< 200 ft
Symbols :   Thunderstorms  Fog  Heavy snow  Heavy precipitations  Wind > 20 kt






- Airport Elevation : 321 ft
- IATA code : YCM


CYSN - Niagara District

CURRENT METAR :
  • 290000Z 22007KT 3SM -SHRA SCT022TCU BKN091 14/14 A2987 RMK TCU3AC4 SLP118

EXPIRED METARs :
  • 282345Z 22006KT 3SM -SHRA SCT022TCU OVC059 14/13 A2986 RMK TCU4SC4 SLP115
  • 282307Z 29007KT 200V310 3SM -TSRA BKN022CB OVC055 15/14 A2987 RMK CB6SC2 LTGCCIC PRESRR SLP118
  • 282250Z 21007KT 10SM TS BKN050CB OVC074 15/14 A2984 RMK CB6AC2 LTGCC SLP108
  • 282236Z 21007KT 10SM BKN074 OVC230 15/14 A2984 RMK AC6CI2 SLP107
  • 282200Z 20008KT 10SM -SHRA SCT025TCU BKN081 OVC250 15/14 A2984 RMK TCU3AC4CI1 SLP107
  • 282136Z 21008KT 10SM -SHRA SCT025TCU BKN081 15/14 A2984 RMK TCU4AC3 SLP106
  • 282100Z 28007KT 5SM -TSRA SCT025CB OVC069 15/13 A2982 RMK CB4AC4 SLP100
  • 282045Z 30008KT 5SM -TSRA SCT021CB OVC052 15/15 A2982 RMK CB4SC4 SLP100 DENSITY ALT 600FT
  • 282000Z 32010G16KT 10SM -SHRA BKN021TCU OVC061 16/14 A2983 RMK TCU5SC3 SLP102 DENSITY ALT 600FT
  • 281940Z 28014G20KT 15SM -SHRA SCT042 BKN061 BKN230 18/13 A2981 RMK SC4SC2CI1 CVCTV CLD EMBD SLP097 DENSITY ALT 1000FT

TAF AMD TAF CYSN
Valid from the 28 at 23:00 until the 29 at 01:00 UTC


282304Z 2823/2901 26008KT P6SM BKN030 OVC060
TEMPO 2823/2901 5SM TSRA BR BKN015 OVC030CB RMK NXT FCST BY 291300Z
CZYZ FIR / North America



MET'MAP, your aeronautical weather chart ! - Copyright ORBIFLY December 2007 - Disclaimer

ORBIFLY MET'MAP TEAM :

Programming & Development : Alexandra Zaïnal
Original concept : Baudouin d'Aumeries
Technical & hardware support : Manuel Goepfert
Assistance : Marc-Olivier Méhu




SOURCES & CREDITS :

   NOAA       Earth
Advisory